createdAt,value
2023-03-13T00:02:06.755Z,0.30
2023-03-13T00:05:45.192Z,0.30
2023-03-13T00:09:23.669Z,0.29
2023-03-13T00:13:00.073Z,0.30
2023-03-13T00:16:39.891Z,0.29
2023-03-13T00:20:17.669Z,0.31
2023-03-13T00:23:53.333Z,0.33
2023-03-13T00:27:34.808Z,0.32
2023-03-13T00:31:11.377Z,0.28
2023-03-13T00:34:45.891Z,0.28
2023-03-13T00:38:23.828Z,0.29
2023-03-13T00:42:21.927Z,0.29
2023-03-13T00:45:38.768Z,0.27
2023-03-13T00:49:16.487Z,0.24
2023-03-13T00:52:54.456Z,0.21
2023-03-13T00:56:32.168Z,0.18
2023-03-13T01:00:10.607Z,0.18
2023-03-13T01:03:50.103Z,0.15
2023-03-13T01:07:24.836Z,0.11
2023-03-13T01:11:09.495Z,0.08
2023-03-13T01:14:40.310Z,0.06
2023-03-13T01:18:19.514Z,0.03
2023-03-13T01:21:55.774Z,0.00
2023-03-13T01:25:37.673Z,-0.02
2023-03-13T01:29:10.896Z,-0.00
2023-03-13T01:32:48.627Z,-0.02
2023-03-13T01:36:26.886Z,-0.02
2023-03-13T01:40:04.234Z,-0.03
2023-03-13T01:43:44.207Z,-0.05
2023-03-13T01:47:20.052Z,-0.05
2023-03-13T01:51:00.675Z,-0.03
2023-03-13T01:54:51.828Z,-0.02
2023-03-13T01:58:12.443Z,0.03
2023-03-13T02:01:52.638Z,0.05
2023-03-13T02:05:31.654Z,0.06
2023-03-13T02:09:16.429Z,0.08
2023-03-13T02:12:43.102Z,0.07
2023-03-13T02:16:22.471Z,0.07
2023-03-13T02:19:58.679Z,0.05
2023-03-13T02:23:45.002Z,0.06
2023-03-13T02:27:13.760Z,0.02
2023-03-13T02:30:54.777Z,0.01
2023-03-13T02:34:33.907Z,-0.00
2023-03-13T02:38:10.583Z,0.02
2023-03-13T02:41:46.273Z,0.01
2023-03-13T02:45:22.440Z,0.02
2023-03-13T02:49:00.262Z,0.04
2023-03-13T02:52:43.647Z,0.05
2023-03-13T02:56:17.820Z,0.04
2023-03-13T02:59:52.622Z,0.06
2023-03-13T03:03:30.482Z,0.06
2023-03-13T03:07:08.112Z,0.04
2023-03-13T03:10:45.606Z,0.02
2023-03-13T03:14:23.224Z,0.01
2023-03-13T03:18:00.910Z,0.01
2023-03-13T03:21:39.315Z,0.01
2023-03-13T03:25:16.754Z,0.02
2023-03-13T03:28:54.984Z,0.01
2023-03-13T03:32:32.804Z,-0.02
2023-03-13T03:36:15.297Z,-0.06
2023-03-13T03:39:47.254Z,-0.04
2023-03-13T03:43:24.875Z,-0.01
2023-03-13T03:47:02.423Z,0.04
2023-03-13T03:50:40.136Z,0.09
2023-03-13T03:54:17.795Z,0.13
2023-03-13T03:57:55.164Z,0.15
2023-03-13T04:01:33.116Z,0.17
2023-03-13T04:05:10.979Z,0.19
2023-03-13T04:08:48.312Z,0.20
2023-03-13T04:12:26.078Z,0.22
2023-03-13T04:16:10.184Z,0.22
2023-03-13T04:19:41.660Z,0.22
2023-03-13T04:23:19.201Z,0.23
2023-03-13T04:26:57.034Z,0.24
2023-03-13T04:30:34.391Z,0.26
2023-03-13T04:34:12.284Z,0.29
2023-03-13T04:37:49.620Z,0.30
2023-03-13T04:41:27.344Z,0.31
2023-03-13T04:45:05.623Z,0.33
2023-03-13T04:48:43.064Z,0.35
2023-03-13T04:52:20.368Z,0.35
2023-03-13T04:55:58.068Z,0.37
2023-03-13T04:59:35.543Z,0.38
2023-03-13T05:03:14.294Z,0.38
2023-03-13T05:06:50.962Z,0.38
2023-03-13T05:10:29.080Z,0.39
2023-03-13T05:14:06.365Z,0.40
2023-03-13T05:17:44.020Z,0.37
2023-03-13T05:21:21.785Z,0.36
2023-03-13T05:24:59.499Z,0.37
2023-03-13T05:28:37.064Z,0.39
2023-03-13T05:32:14.868Z,0.41
2023-03-13T05:35:52.294Z,0.41
2023-03-13T05:39:30.305Z,0.43
2023-03-13T05:43:07.964Z,0.44
2023-03-13T05:46:45.493Z,0.47
2023-03-13T05:50:23.161Z,0.50
2023-03-13T05:54:00.734Z,0.54
2023-03-13T05:57:40.437Z,0.59
2023-03-13T06:01:16.218Z,0.61
2023-03-13T06:04:54.042Z,0.64
2023-03-13T06:08:32.836Z,0.67
2023-03-13T06:12:11.236Z,0.65
2023-03-13T06:15:54.480Z,0.65
2023-03-13T06:19:24.771Z,0.68
2023-03-13T06:23:02.293Z,0.72
2023-03-13T06:26:39.518Z,0.76
2023-03-13T06:30:18.333Z,0.80
2023-03-13T06:33:56.275Z,0.84
2023-03-13T06:37:33.933Z,0.88
2023-03-13T06:41:10.622Z,0.92
2023-03-13T06:44:48.337Z,0.96
2023-03-13T06:48:25.760Z,1.00
2023-03-13T06:52:03.794Z,1.02
2023-03-13T06:55:41.120Z,1.07
2023-03-13T06:59:19.153Z,1.12
2023-03-13T07:02:56.940Z,1.18
2023-03-13T07:06:34.377Z,1.24
2023-03-13T07:10:12.537Z,1.32
2023-03-13T07:13:49.652Z,1.36
2023-03-13T07:17:27.456Z,1.39
2023-03-13T07:21:05.778Z,1.43
2023-03-13T07:24:43.107Z,1.48
2023-03-13T07:28:20.308Z,1.53
2023-03-13T07:31:58.424Z,1.60
2023-03-13T07:35:35.979Z,1.66
2023-03-13T07:39:13.674Z,1.71
2023-03-13T07:42:50.959Z,1.76
2023-03-13T07:46:28.779Z,1.83
2023-03-13T07:50:06.903Z,1.87
2023-03-13T07:53:47.407Z,1.90
2023-03-13T07:57:22.061Z,1.91
2023-03-13T08:01:00.760Z,1.93
2023-03-13T08:04:37.326Z,1.98
2023-03-13T08:08:15.116Z,2.04
2023-03-13T08:11:52.632Z,2.10
2023-03-13T08:15:30.243Z,2.13
2023-03-13T08:19:08.013Z,2.14
2023-03-13T08:22:50.677Z,2.12
2023-03-13T08:26:25.512Z,2.10
2023-03-13T08:30:01.672Z,2.13
2023-03-13T08:33:39.695Z,2.16
2023-03-13T08:37:16.742Z,2.18
2023-03-13T08:40:58.062Z,2.21
2023-03-13T08:44:31.653Z,2.22
2023-03-13T08:48:09.407Z,2.23
2023-03-13T08:51:46.901Z,2.23
2023-03-13T08:55:26.268Z,2.23
2023-03-13T08:59:04.718Z,2.26
2023-03-13T09:02:40.524Z,2.19
2023-03-13T09:06:17.939Z,2.12
2023-03-13T09:09:55.713Z,2.06
2023-03-13T09:13:35.565Z,2.04
2023-03-13T09:17:10.734Z,2.03
2023-03-13T09:20:49.104Z,2.01
2023-03-13T09:24:26.261Z,2.01
2023-03-13T09:28:03.497Z,2.01
2023-03-13T09:31:41.891Z,2.00
2023-03-13T09:35:18.698Z,2.03
2023-03-13T09:38:59.590Z,2.06
2023-03-13T09:42:50.559Z,2.10
2023-03-13T09:46:26.688Z,2.14
2023-03-13T09:50:29.499Z,2.16
2023-03-13T09:53:53.377Z,2.19
2023-03-13T09:57:17.941Z,2.21
2023-03-13T10:00:51.524Z,2.28
2023-03-13T10:04:36.292Z,2.34
2023-03-13T10:08:24.696Z,2.40
2023-03-13T10:11:46.021Z,2.44
2023-03-13T10:15:43.061Z,2.47
2023-03-13T10:18:56.560Z,2.51
2023-03-13T10:22:32.831Z,2.53
2023-03-13T10:26:17.846Z,2.53
2023-03-13T10:29:46.772Z,2.53
2023-03-13T10:33:29.748Z,2.49
2023-03-13T10:37:02.393Z,2.46
2023-03-13T10:40:40.164Z,2.39
2023-03-13T10:44:23.479Z,2.34
2023-03-13T10:48:01.672Z,2.30
2023-03-13T10:51:40.644Z,2.27
2023-03-13T10:55:13.673Z,2.25
2023-03-13T10:58:51.806Z,2.25
2023-03-13T11:02:39.942Z,2.25
2023-03-13T11:06:04.371Z,2.26
2023-03-13T11:09:40.975Z,2.27
2023-03-13T11:13:36.648Z,2.24
2023-03-13T11:17:21.310Z,2.22
2023-03-13T11:20:39.660Z,2.23
2023-03-13T11:24:28.759Z,2.24
2023-03-13T11:28:13.762Z,2.24
2023-03-13T11:31:36.346Z,2.26
2023-03-13T11:35:31.589Z,2.28
2023-03-13T11:38:53.671Z,2.30
2023-03-13T11:42:38.736Z,2.32
2023-03-13T11:46:04.376Z,2.34
2023-03-13T11:50:11.068Z,2.34
2023-03-13T11:53:50.401Z,2.36
2023-03-13T11:56:58.429Z,2.39
2023-03-13T12:00:35.516Z,2.40
2023-03-13T12:04:12.154Z,2.39
2023-03-13T12:08:04.080Z,2.39
2023-03-13T12:11:29.323Z,2.37
2023-03-13T12:15:18.890Z,2.36
2023-03-13T12:18:40.574Z,2.36
2023-03-13T12:22:21.259Z,2.37
2023-03-13T12:25:55.325Z,2.40
2023-03-13T12:29:48.738Z,2.42
2023-03-13T12:33:27.220Z,2.47
2023-03-13T12:37:10.537Z,2.52
2023-03-13T12:40:30.408Z,2.57
2023-03-13T12:44:08.837Z,2.60
2023-03-13T12:48:06.336Z,2.62
2023-03-13T12:51:34.499Z,2.65
2023-03-13T12:55:12.875Z,2.66
2023-03-13T12:59:12.519Z,2.66
2023-03-13T13:02:24.195Z,2.68
2023-03-13T13:06:07.829Z,2.71
2023-03-13T13:09:36.581Z,2.75
2023-03-13T13:13:30.177Z,2.81
2023-03-13T13:16:50.613Z,2.88
2023-03-13T13:20:40.483Z,2.95
2023-03-13T13:24:38.189Z,3.01
2023-03-13T13:27:39.047Z,3.07
2023-03-13T13:31:47.989Z,3.12
2023-03-13T13:35:00.747Z,3.16
2023-03-13T13:38:37.233Z,3.17
2023-03-13T13:42:51.050Z,3.19
2023-03-13T13:46:32.753Z,3.23
2023-03-13T13:50:00.051Z,3.28
2023-03-13T13:53:56.199Z,3.32
2023-03-13T13:56:59.697Z,3.34
2023-03-13T14:00:43.488Z,3.36
2023-03-13T14:04:20.047Z,3.36
2023-03-13T14:08:23.923Z,3.37
2023-03-13T14:11:48.670Z,3.37
2023-03-13T14:15:22.016Z,3.82
2023-03-13T14:18:43.883Z,4.05
2023-03-13T14:22:20.383Z,4.18
2023-03-13T14:25:58.536Z,4.21
2023-03-13T14:29:35.877Z,4.14
2023-03-13T14:33:14.091Z,4.16
2023-03-13T14:37:14.903Z,4.38
2023-03-13T14:40:32.007Z,4.49
2023-03-13T14:44:26.044Z,4.53
2023-03-13T14:47:44.392Z,4.54
2023-03-13T14:51:26.136Z,4.64
2023-03-13T14:55:06.723Z,4.64
2023-03-13T14:58:37.786Z,4.67
2023-03-13T15:02:24.499Z,4.68
2023-03-13T15:06:11.406Z,4.68
2023-03-13T15:09:30.044Z,4.69
2023-03-13T15:13:20.869Z,4.66
2023-03-13T15:16:46.000Z,4.66
2023-03-13T15:20:23.356Z,4.66
2023-03-13T15:24:04.492Z,4.66
2023-03-13T15:27:39.755Z,4.68
2023-03-13T15:31:17.173Z,4.75
2023-03-13T15:34:58.507Z,4.78
2023-03-13T15:38:31.672Z,4.74
2023-03-13T15:42:09.567Z,4.75
2023-03-13T15:45:51.855Z,4.79
2023-03-13T15:49:24.814Z,4.85
2023-03-13T15:53:02.403Z,4.92
2023-03-13T15:56:40.356Z,4.99
2023-03-13T16:00:26.769Z,5.03
2023-03-13T16:03:58.320Z,5.05
2023-03-13T16:07:33.634Z,5.01
2023-03-13T16:11:14.801Z,4.98
2023-03-13T16:14:48.445Z,4.95
2023-03-13T16:18:26.488Z,5.05
2023-03-13T16:22:03.948Z,5.11
2023-03-13T16:25:41.445Z,5.08
2023-03-13T16:29:19.216Z,5.09
2023-03-13T16:32:57.232Z,5.12
2023-03-13T16:36:36.052Z,5.24
2023-03-13T16:40:25.414Z,5.37
2023-03-13T16:43:50.481Z,5.51
2023-03-13T16:47:31.293Z,5.53
2023-03-13T16:51:07.405Z,5.53
2023-03-13T16:54:43.479Z,5.59
2023-03-13T16:58:20.549Z,5.62
2023-03-13T17:01:58.069Z,5.62
2023-03-13T17:05:35.856Z,5.55
2023-03-13T17:09:18.184Z,5.55
2023-03-13T17:12:51.694Z,5.53
2023-03-13T17:16:34.412Z,5.53
2023-03-13T17:20:09.846Z,5.60
2023-03-13T17:23:45.566Z,5.52
2023-03-13T17:27:21.518Z,5.45
2023-03-13T17:30:59.245Z,5.52
2023-03-13T17:34:37.029Z,5.54
2023-03-13T17:38:14.568Z,5.57
2023-03-13T17:41:52.453Z,5.65
2023-03-13T17:45:31.071Z,5.72
2023-03-13T17:49:12.033Z,5.79
2023-03-13T17:52:45.965Z,5.81
2023-03-13T17:56:25.772Z,5.79
2023-03-13T18:00:00.605Z,5.79
2023-03-13T18:03:38.503Z,5.75
2023-03-13T18:07:30.006Z,5.88
2023-03-13T18:10:53.774Z,5.96
2023-03-13T18:14:32.070Z,6.01
2023-03-13T18:18:16.419Z,6.01
2023-03-13T18:21:47.902Z,6.06
2023-03-13T18:25:24.497Z,6.07
2023-03-13T18:29:04.718Z,6.16
2023-03-13T18:32:39.976Z,6.18
2023-03-13T18:36:20.699Z,6.09
2023-03-13T18:39:56.328Z,6.04
2023-03-13T18:43:32.638Z,5.89
2023-03-13T18:47:16.009Z,5.74
2023-03-13T18:50:48.368Z,5.63
2023-03-13T18:54:25.941Z,5.57
2023-03-13T18:58:03.332Z,5.54
2023-03-13T19:01:42.939Z,5.46
2023-03-13T19:05:20.306Z,5.35
2023-03-13T19:09:01.705Z,5.31
2023-03-13T19:12:33.975Z,5.23
2023-03-13T19:16:25.581Z,5.25
2023-03-13T19:19:49.306Z,5.18
2023-03-13T19:23:27.493Z,5.17
2023-03-13T19:27:05.642Z,5.09
2023-03-13T19:30:44.532Z,5.02
2023-03-13T19:34:20.679Z,4.97
2023-03-13T19:37:58.860Z,4.95
2023-03-13T19:41:35.425Z,4.93
2023-03-13T19:45:14.001Z,4.95
2023-03-13T19:48:56.155Z,4.92
2023-03-13T19:52:28.477Z,4.94
2023-03-13T19:56:14.975Z,4.96
2023-03-13T19:59:44.094Z,4.95
2023-03-13T20:03:21.687Z,4.96
2023-03-13T20:06:59.522Z,5.02
2023-03-13T20:10:37.086Z,5.05
2023-03-13T20:14:33.902Z,5.14
2023-03-13T20:17:52.196Z,5.17
2023-03-13T20:21:33.011Z,5.21
2023-03-13T20:25:07.834Z,5.24
2023-03-13T20:28:48.463Z,5.30
2023-03-13T20:32:22.825Z,5.30
2023-03-13T20:36:03.902Z,5.20
2023-03-13T20:39:38.462Z,5.16
2023-03-13T20:43:16.687Z,5.06
2023-03-13T20:46:53.483Z,5.01
2023-03-13T20:50:32.398Z,4.97
2023-03-13T20:54:08.695Z,5.00
2023-03-13T20:57:46.599Z,4.99
2023-03-13T21:01:26.915Z,5.02
2023-03-13T21:05:02.128Z,5.01
2023-03-13T21:08:39.948Z,5.01
2023-03-13T21:12:17.299Z,5.02
2023-03-13T21:16:02.249Z,4.93
2023-03-13T21:19:34.229Z,4.87
2023-03-13T21:23:11.008Z,4.89
2023-03-13T21:26:49.843Z,4.84
2023-03-13T21:30:25.789Z,4.85
2023-03-13T21:34:03.592Z,5.00
2023-03-13T21:37:41.609Z,4.92
2023-03-13T21:41:21.407Z,4.89
2023-03-13T21:44:56.651Z,4.90
2023-03-13T21:48:34.307Z,5.02
2023-03-13T21:52:11.783Z,5.24
2023-03-13T21:56:09.127Z,5.30
2023-03-13T21:59:28.142Z,5.44
2023-03-13T22:03:04.742Z,5.54
2023-03-13T22:06:42.834Z,5.53
2023-03-13T22:10:20.266Z,5.58
2023-03-13T22:13:57.925Z,5.68
2023-03-13T22:17:35.406Z,5.73
2023-03-13T22:21:13.330Z,5.89
2023-03-13T22:24:51.148Z,5.91
2023-03-13T22:28:30.191Z,5.95
2023-03-13T22:32:06.300Z,5.99
2023-03-13T22:35:45.486Z,5.98
2023-03-13T22:39:21.513Z,6.06
2023-03-13T22:42:59.153Z,5.99
2023-03-13T22:46:36.813Z,5.96
2023-03-13T22:50:14.975Z,5.96
2023-03-13T22:53:52.989Z,6.06
2023-03-13T22:57:30.132Z,6.07
2023-03-13T23:01:09.786Z,6.12
2023-03-13T23:04:44.995Z,6.10
2023-03-13T23:08:23.279Z,6.09
2023-03-13T23:12:00.413Z,6.07
2023-03-13T23:15:55.294Z,6.00
2023-03-13T23:19:15.608Z,5.83
2023-03-13T23:22:53.352Z,5.63
2023-03-13T23:26:31.198Z,5.53
2023-03-13T23:30:11.901Z,5.59
2023-03-13T23:33:47.233Z,5.84
2023-03-13T23:37:24.785Z,5.99
2023-03-13T23:41:09.146Z,6.08
2023-03-13T23:44:58.605Z,6.14
2023-03-13T23:48:16.828Z,6.21
2023-03-13T23:51:54.812Z,6.17
2023-03-13T23:55:32.333Z,6.19
2023-03-13T23:59:10.491Z,6.15
